sensor_id;sensor_type;location;lat;lon;timestamp;temperature;humidity
2873;DHT22;1444;49.166;7.312;2023-04-03T00:00:41;6.20;97.20
2873;DHT22;1444;49.166;7.312;2023-04-03T00:03:08;6.20;97.20
2873;DHT22;1444;49.166;7.312;2023-04-03T00:05:34;6.10;96.60
2873;DHT22;1444;49.166;7.312;2023-04-03T00:08:01;6.00;96.20
2873;DHT22;1444;49.166;7.312;2023-04-03T00:10:31;6.00;96.10
2873;DHT22;1444;49.166;7.312;2023-04-03T00:12:58;5.90;95.80
2873;DHT22;1444;49.166;7.312;2023-04-03T00:15:24;5.90;95.60
2873;DHT22;1444;49.166;7.312;2023-04-03T00:17:51;5.90;95.30
2873;DHT22;1444;49.166;7.312;2023-04-03T00:20:18;5.90;95.50
2873;DHT22;1444;49.166;7.312;2023-04-03T00:22:45;5.80;95.20
2873;DHT22;1444;49.166;7.312;2023-04-03T00:25:11;5.80;95.20
2873;DHT22;1444;49.166;7.312;2023-04-03T00:27:40;5.80;95.40
2873;DHT22;1444;49.166;7.312;2023-04-03T00:30:09;5.80;95.00
2873;DHT22;1444;49.166;7.312;2023-04-03T00:32:37;5.80;95.00
2873;DHT22;1444;49.166;7.312;2023-04-03T00:35:04;5.80;95.00
2873;DHT22;1444;49.166;7.312;2023-04-03T00:37:31;5.80;95.20
2873;DHT22;1444;49.166;7.312;2023-04-03T00:39:57;5.80;94.70
2873;DHT22;1444;49.166;7.312;2023-04-03T00:42:25;6.10;94.80
2873;DHT22;1444;49.166;7.312;2023-04-03T00:47:56;5.70;94.40
2873;DHT22;1444;49.166;7.312;2023-04-03T00:50:25;5.70;94.50
2873;DHT22;1444;49.166;7.312;2023-04-03T00:52:52;5.70;94.90
2873;DHT22;1444;49.166;7.312;2023-04-03T00:55:19;5.50;93.80
2873;DHT22;1444;49.166;7.312;2023-04-03T00:57:47;5.60;94.00
2873;DHT22;1444;49.166;7.312;2023-04-03T01:00:17;5.60;94.20
2873;DHT22;1444;49.166;7.312;2023-04-03T01:02:45;5.50;94.40
2873;DHT22;1444;49.166;7.312;2023-04-03T01:05:15;5.40;94.40
2873;DHT22;1444;49.166;7.312;2023-04-03T01:07:43;5.30;94.40
2873;DHT22;1444;49.166;7.312;2023-04-03T01:10:12;5.30;94.50
2873;DHT22;1444;49.166;7.312;2023-04-03T01:12:41;5.30;94.50
2873;DHT22;1444;49.166;7.312;2023-04-03T01:15:11;5.20;94.50
2873;DHT22;1444;49.166;7.312;2023-04-03T01:17:40;5.20;94.50
2873;DHT22;1444;49.166;7.312;2023-04-03T01:20:45;5.10;94.60
2873;DHT22;1444;49.166;7.312;2023-04-03T01:23:23;5.10;95.00
2873;DHT22;1444;49.166;7.312;2023-04-03T01:25:54;5.00;94.80
2873;DHT22;1444;49.166;7.312;2023-04-03T01:28:23;4.90;94.80
2873;DHT22;1444;49.166;7.312;2023-04-03T01:30:56;4.80;95.00
2873;DHT22;1444;49.166;7.312;2023-04-03T01:33:26;4.80;95.30
2873;DHT22;1444;49.166;7.312;2023-04-03T01:35:53;4.70;95.10
2873;DHT22;1444;49.166;7.312;2023-04-03T01:38:20;4.70;95.40
2873;DHT22;1444;49.166;7.312;2023-04-03T01:40:46;4.60;95.40
2873;DHT22;1444;49.166;7.312;2023-04-03T01:43:13;4.60;95.50
2873;DHT22;1444;49.166;7.312;2023-04-03T01:45:42;4.60;95.50
2873;DHT22;1444;49.166;7.312;2023-04-03T01:48:09;4.50;95.70
2873;DHT22;1444;49.166;7.312;2023-04-03T01:50:37;4.50;95.80
2873;DHT22;1444;49.166;7.312;2023-04-03T01:53:04;4.50;95.70
2873;DHT22;1444;49.166;7.312;2023-04-03T01:55:31;4.40;95.80
2873;DHT22;1444;49.166;7.312;2023-04-03T01:57:57;4.40;95.80
2873;DHT22;1444;49.166;7.312;2023-04-03T02:00:24;4.30;95.80
2873;DHT22;1444;49.166;7.312;2023-04-03T02:02:52;4.30;95.80
2873;DHT22;1444;49.166;7.312;2023-04-03T02:05:18;4.30;95.70
2873;DHT22;1444;49.166;7.312;2023-04-03T02:07:46;4.20;95.70
2873;DHT22;1444;49.166;7.312;2023-04-03T02:10:13;4.20;95.80
2873;DHT22;1444;49.166;7.312;2023-04-03T02:12:40;4.30;95.80
2873;DHT22;1444;49.166;7.312;2023-04-03T02:15:08;4.20;95.70
2873;DHT22;1444;49.166;7.312;2023-04-03T02:17:35;4.20;95.70
2873;DHT22;1444;49.166;7.312;2023-04-03T02:20:02;4.20;95.70
2873;DHT22;1444;49.166;7.312;2023-04-03T02:22:28;4.10;95.80
2873;DHT22;1444;49.166;7.312;2023-04-03T02:24:56;4.10;95.90
2873;DHT22;1444;49.166;7.312;2023-04-03T02:27:23;4.00;95.80
2873;DHT22;1444;49.166;7.312;2023-04-03T02:29:50;4.00;95.80
2873;DHT22;1444;49.166;7.312;2023-04-03T02:32:17;4.00;95.90
2873;DHT22;1444;49.166;7.312;2023-04-03T02:34:43;4.00;95.90
2873;DHT22;1444;49.166;7.312;2023-04-03T02:37:10;4.00;95.80
2873;DHT22;1444;49.166;7.312;2023-04-03T02:39:37;4.00;95.90
2873;DHT22;1444;49.166;7.312;2023-04-03T02:42:05;4.00;96.00
2873;DHT22;1444;49.166;7.312;2023-04-03T02:44:32;4.00;96.00
2873;DHT22;1444;49.166;7.312;2023-04-03T02:46:59;3.90;95.70
2873;DHT22;1444;49.166;7.312;2023-04-03T02:49:26;3.90;95.90
2873;DHT22;1444;49.166;7.312;2023-04-03T02:51:52;3.90;96.00
2873;DHT22;1444;49.166;7.312;2023-04-03T02:54:19;3.90;96.00
2873;DHT22;1444;49.166;7.312;2023-04-03T02:56:46;3.90;95.80
2873;DHT22;1444;49.166;7.312;2023-04-03T02:59:14;3.80;95.80
2873;DHT22;1444;49.166;7.312;2023-04-03T03:01:41;3.80;95.80
2873;DHT22;1444;49.166;7.312;2023-04-03T03:04:07;3.70;95.80
2873;DHT22;1444;49.166;7.312;2023-04-03T03:06:34;3.80;96.20
2873;DHT22;1444;49.166;7.312;2023-04-03T03:09:01;3.80;96.00
2873;DHT22;1444;49.166;7.312;2023-04-03T03:11:29;3.70;96.00
2873;DHT22;1444;49.166;7.312;2023-04-03T03:13:56;3.70;95.90
2873;DHT22;1444;49.166;7.312;2023-04-03T03:16:24;3.70;96.00
2873;DHT22;1444;49.166;7.312;2023-04-03T03:18:51;3.70;95.90
2873;DHT22;1444;49.166;7.312;2023-04-03T03:21:17;3.70;96.00
2873;DHT22;1444;49.166;7.312;2023-04-03T03:23:44;3.60;95.90
2873;DHT22;1444;49.166;7.312;2023-04-03T03:26:11;3.60;96.00
2873;DHT22;1444;49.166;7.312;2023-04-03T03:28:39;3.60;96.20
2873;DHT22;1444;49.166;7.312;2023-04-03T03:31:06;3.60;96.40
2873;DHT22;1444;49.166;7.312;2023-04-03T03:33:35;3.70;96.30
2873;DHT22;1444;49.166;7.312;2023-04-03T03:36:01;3.60;96.20
2873;DHT22;1444;49.166;7.312;2023-04-03T03:43:22;3.60;96.20
2873;DHT22;1444;49.166;7.312;2023-04-03T03:45:50;3.60;96.30
2873;DHT22;1444;49.166;7.312;2023-04-03T03:48:17;3.50;96.40
2873;DHT22;1444;49.166;7.312;2023-04-03T03:50:46;3.50;96.30
2873;DHT22;1444;49.166;7.312;2023-04-03T03:53:12;3.50;96.50
2873;DHT22;1444;49.166;7.312;2023-04-03T03:55:40;3.40;96.20
2873;DHT22;1444;49.166;7.312;2023-04-03T03:58:07;3.40;96.10
2873;DHT22;1444;49.166;7.312;2023-04-03T04:00:33;3.40;96.50
2873;DHT22;1444;49.166;7.312;2023-04-03T04:07:55;3.30;96.40
2873;DHT22;1444;49.166;7.312;2023-04-03T04:17:44;3.30;96.70
2873;DHT22;1444;49.166;7.312;2023-04-03T04:20:11;3.30;96.60
2873;DHT22;1444;49.166;7.312;2023-04-03T04:22:38;3.30;96.80
2873;DHT22;1444;49.166;7.312;2023-04-03T04:27:33;3.30;96.70
2873;DHT22;1444;49.166;7.312;2023-04-03T04:30:00;3.30;96.50
2873;DHT22;1444;49.166;7.312;2023-04-03T04:32:28;3.20;96.30
2873;DHT22;1444;49.166;7.312;2023-04-03T04:34:54;3.20;96.40
2873;DHT22;1444;49.166;7.312;2023-04-03T04:37:21;3.20;96.30
2873;DHT22;1444;49.166;7.312;2023-04-03T04:42:16;3.20;96.40
2873;DHT22;1444;49.166;7.312;2023-04-03T04:44:43;3.20;96.50
2873;DHT22;1444;49.166;7.312;2023-04-03T04:47:10;3.20;96.50
2873;DHT22;1444;49.166;7.312;2023-04-03T04:49:37;3.20;96.40
2873;DHT22;1444;49.166;7.312;2023-04-03T04:52:04;3.20;96.50
2873;DHT22;1444;49.166;7.312;2023-04-03T04:54:30;3.20;96.60
2873;DHT22;1444;49.166;7.312;2023-04-03T04:56:57;3.20;96.60
2873;DHT22;1444;49.166;7.312;2023-04-03T04:59:26;3.20;96.70
2873;DHT22;1444;49.166;7.312;2023-04-03T05:01:52;3.20;96.60
2873;DHT22;1444;49.166;7.312;2023-04-03T05:04:19;3.20;96.60
2873;DHT22;1444;49.166;7.312;2023-04-03T05:06:46;3.20;96.50
2873;DHT22;1444;49.166;7.312;2023-04-03T05:09:12;3.20;96.30
2873;DHT22;1444;49.166;7.312;2023-04-03T05:11:39;3.20;96.30
2873;DHT22;1444;49.166;7.312;2023-04-03T05:14:06;3.10;96.50
2873;DHT22;1444;49.166;7.312;2023-04-03T05:16:34;3.20;96.60
2873;DHT22;1444;49.166;7.312;2023-04-03T05:19:01;3.10;96.40
2873;DHT22;1444;49.166;7.312;2023-04-03T05:21:28;3.10;96.60
2873;DHT22;1444;49.166;7.312;2023-04-03T05:23:57;3.20;96.70
2873;DHT22;1444;49.166;7.312;2023-04-03T05:26:24;3.20;96.80
2873;DHT22;1444;49.166;7.312;2023-04-03T05:28:52;3.20;96.60
2873;DHT22;1444;49.166;7.312;2023-04-03T05:31:18;3.20;96.60
2873;DHT22;1444;49.166;7.312;2023-04-03T05:33:47;3.20;96.40
2873;DHT22;1444;49.166;7.312;2023-04-03T05:36:14;3.20;96.60
2873;DHT22;1444;49.166;7.312;2023-04-03T05:38:41;3.20;96.40
2873;DHT22;1444;49.166;7.312;2023-04-03T05:41:07;3.20;96.60
2873;DHT22;1444;49.166;7.312;2023-04-03T05:43:34;3.30;96.90
2873;DHT22;1444;49.166;7.312;2023-04-03T05:46:03;3.30;96.80
2873;DHT22;1444;49.166;7.312;2023-04-03T05:48:29;3.40;96.90
2873;DHT22;1444;49.166;7.312;2023-04-03T05:50:58;3.40;96.80
2873;DHT22;1444;49.166;7.312;2023-04-03T05:53:27;3.40;96.70
2873;DHT22;1444;49.166;7.312;2023-04-03T05:55:54;3.40;96.70
2873;DHT22;1444;49.166;7.312;2023-04-03T05:58:21;3.40;96.40
2873;DHT22;1444;49.166;7.312;2023-04-03T06:00:48;3.40;96.60
2873;DHT22;1444;49.166;7.312;2023-04-03T06:03:14;3.40;96.30
2873;DHT22;1444;49.166;7.312;2023-04-03T06:05:42;3.40;96.40
2873;DHT22;1444;49.166;7.312;2023-04-03T06:08:10;3.60;96.70
2873;DHT22;1444;49.166;7.312;2023-04-03T06:10:38;4.00;97.30
2873;DHT22;1444;49.166;7.312;2023-04-03T06:13:05;4.60;97.00
2873;DHT22;1444;49.166;7.312;2023-04-03T06:15:32;5.50;96.30
2873;DHT22;1444;49.166;7.312;2023-04-03T06:17:59;6.20;95.70
2873;DHT22;1444;49.166;7.312;2023-04-03T06:20:26;6.70;94.80
2873;DHT22;1444;49.166;7.312;2023-04-03T06:22:53;7.50;93.80
2873;DHT22;1444;49.166;7.312;2023-04-03T06:25:21;7.80;92.70
2873;DHT22;1444;49.166;7.312;2023-04-03T06:27:48;8.10;91.90
2873;DHT22;1444;49.166;7.312;2023-04-03T06:30:15;8.70;91.60
2873;DHT22;1444;49.166;7.312;2023-04-03T06:32:41;9.30;91.30
2873;DHT22;1444;49.166;7.312;2023-04-03T06:35:08;9.90;90.30
2873;DHT22;1444;49.166;7.312;2023-04-03T06:37:36;10.60;88.70
2873;DHT22;1444;49.166;7.312;2023-04-03T06:40:03;10.80;86.10
2873;DHT22;1444;49.166;7.312;2023-04-03T06:42:32;11.30;86.50
2873;DHT22;1444;49.166;7.312;2023-04-03T06:44:58;11.70;83.70
2873;DHT22;1444;49.166;7.312;2023-04-03T06:47:25;12.00;83.40
2873;DHT22;1444;49.166;7.312;2023-04-03T06:49:52;12.20;82.30
2873;DHT22;1444;49.166;7.312;2023-04-03T06:52:19;12.40;80.70
2873;DHT22;1444;49.166;7.312;2023-04-03T06:54:46;12.50;79.80
2873;DHT22;1444;49.166;7.312;2023-04-03T06:57:12;12.70;80.00
2873;DHT22;1444;49.166;7.312;2023-04-03T06:59:42;13.10;79.40
2873;DHT22;1444;49.166;7.312;2023-04-03T07:02:10;13.20;79.00
2873;DHT22;1444;49.166;7.312;2023-04-03T07:04:37;13.20;77.80
2873;DHT22;1444;49.166;7.312;2023-04-03T07:07:04;12.50;77.00
2873;DHT22;1444;49.166;7.312;2023-04-03T07:09:31;13.60;76.80
2873;DHT22;1444;49.166;7.312;2023-04-03T07:11:58;13.50;77.10
2873;DHT22;1444;49.166;7.312;2023-04-03T07:14:24;13.30;75.20
2873;DHT22;1444;49.166;7.312;2023-04-03T07:16:52;13.20;76.20
2873;DHT22;1444;49.166;7.312;2023-04-03T07:19:19;13.10;76.60
2873;DHT22;1444;49.166;7.312;2023-04-03T07:21:46;13.20;78.40
2873;DHT22;1444;49.166;7.312;2023-04-03T07:24:13;12.80;75.40
2873;DHT22;1444;49.166;7.312;2023-04-03T07:26:40;12.50;75.90
2873;DHT22;1444;49.166;7.312;2023-04-03T07:29:07;12.40;78.50
2873;DHT22;1444;49.166;7.312;2023-04-03T07:31:34;12.30;77.90
2873;DHT22;1444;49.166;7.312;2023-04-03T07:34:02;12.00;76.70
2873;DHT22;1444;49.166;7.312;2023-04-03T07:36:29;11.60;77.20
2873;DHT22;1444;49.166;7.312;2023-04-03T07:38:58;11.30;78.10
2873;DHT22;1444;49.166;7.312;2023-04-03T07:41:25;11.10;79.80
2873;DHT22;1444;49.166;7.312;2023-04-03T07:43:52;10.80;80.90
2873;DHT22;1444;49.166;7.312;2023-04-03T07:46:19;10.60;81.70
2873;DHT22;1444;49.166;7.312;2023-04-03T07:48:46;10.50;82.50
2873;DHT22;1444;49.166;7.312;2023-04-03T07:51:14;10.10;83.60
2873;DHT22;1444;49.166;7.312;2023-04-03T07:53:41;10.00;84.30
2873;DHT22;1444;49.166;7.312;2023-04-03T07:56:08;9.90;85.20
2873;DHT22;1444;49.166;7.312;2023-04-03T07:58:35;9.90;86.30
2873;DHT22;1444;49.166;7.312;2023-04-03T08:01:02;9.90;87.60
2873;DHT22;1444;49.166;7.312;2023-04-03T08:03:29;9.80;85.50
2873;DHT22;1444;49.166;7.312;2023-04-03T08:06:01;9.60;85.30
2873;DHT22;1444;49.166;7.312;2023-04-03T08:08:31;9.60;86.30
2873;DHT22;1444;49.166;7.312;2023-04-03T08:10:59;9.60;86.60
2873;DHT22;1444;49.166;7.312;2023-04-03T08:13:27;9.50;85.80
2873;DHT22;1444;49.166;7.312;2023-04-03T08:15:54;9.50;86.80
2873;DHT22;1444;49.166;7.312;2023-04-03T08:18:23;9.50;88.60
2873;DHT22;1444;49.166;7.312;2023-04-03T08:20:51;9.60;90.30
2873;DHT22;1444;49.166;7.312;2023-04-03T08:23:18;9.50;90.00
2873;DHT22;1444;49.166;7.312;2023-04-03T08:25:46;9.40;89.70
2873;DHT22;1444;49.166;7.312;2023-04-03T08:28:13;9.10;89.10
2873;DHT22;1444;49.166;7.312;2023-04-03T08:30:40;9.10;90.20
2873;DHT22;1444;49.166;7.312;2023-04-03T08:33:08;9.20;90.20
2873;DHT22;1444;49.166;7.312;2023-04-03T08:35:38;9.30;91.20
2873;DHT22;1444;49.166;7.312;2023-04-03T08:38:05;9.40;90.30
2873;DHT22;1444;49.166;7.312;2023-04-03T08:40:32;9.70;90.10
2873;DHT22;1444;49.166;7.312;2023-04-03T08:43:10;9.70;89.40
2873;DHT22;1444;49.166;7.312;2023-04-03T08:45:45;9.90;90.50
2873;DHT22;1444;49.166;7.312;2023-04-03T08:48:15;9.80;89.40
2873;DHT22;1444;49.166;7.312;2023-04-03T08:50:45;9.70;87.50
2873;DHT22;1444;49.166;7.312;2023-04-03T08:53:15;9.40;87.90
2873;DHT22;1444;49.166;7.312;2023-04-03T08:55:44;9.30;88.30
2873;DHT22;1444;49.166;7.312;2023-04-03T08:58:15;9.10;89.30
2873;DHT22;1444;49.166;7.312;2023-04-03T09:00:46;9.00;89.10
2873;DHT22;1444;49.166;7.312;2023-04-03T09:03:16;9.00;89.10
2873;DHT22;1444;49.166;7.312;2023-04-03T09:05:48;9.40;89.80
2873;DHT22;1444;49.166;7.312;2023-04-03T09:08:22;9.60;89.30
2873;DHT22;1444;49.166;7.312;2023-04-03T09:10:57;10.00;86.10
2873;DHT22;1444;49.166;7.312;2023-04-03T09:13:30;10.00;85.90
2873;DHT22;1444;49.166;7.312;2023-04-03T09:16:00;9.70;85.50
2873;DHT22;1444;49.166;7.312;2023-04-03T09:18:30;9.80;86.50
2873;DHT22;1444;49.166;7.312;2023-04-03T09:21:04;10.00;89.60
2873;DHT22;1444;49.166;7.312;2023-04-03T09:23:40;10.20;87.10
2873;DHT22;1444;49.166;7.312;2023-04-03T09:26:13;10.40;85.40
2873;DHT22;1444;49.166;7.312;2023-04-03T09:28:42;10.00;82.50
2873;DHT22;1444;49.166;7.312;2023-04-03T09:31:18;10.00;82.80
2873;DHT22;1444;49.166;7.312;2023-04-03T09:33:46;10.10;85.30
2873;DHT22;1444;49.166;7.312;2023-04-03T09:36:13;10.40;86.30
2873;DHT22;1444;49.166;7.312;2023-04-03T09:38:39;10.60;84.40
2873;DHT22;1444;49.166;7.312;2023-04-03T09:41:15;10.90;85.20
2873;DHT22;1444;49.166;7.312;2023-04-03T09:43:52;10.70;81.60
2873;DHT22;1444;49.166;7.312;2023-04-03T09:46:30;10.70;82.30
2873;DHT22;1444;49.166;7.312;2023-04-03T09:49:03;10.50;82.70
2873;DHT22;1444;49.166;7.312;2023-04-03T09:51:30;10.70;84.40
2873;DHT22;1444;49.166;7.312;2023-04-03T09:53:58;10.90;85.10
2873;DHT22;1444;49.166;7.312;2023-04-03T09:59:12;10.60;81.10
2873;DHT22;1444;49.166;7.312;2023-04-03T10:01:42;10.60;81.10
2873;DHT22;1444;49.166;7.312;2023-04-03T10:04:11;10.40;80.10
2873;DHT22;1444;49.166;7.312;2023-04-03T10:06:39;10.30;81.80
2873;DHT22;1444;49.166;7.312;2023-04-03T10:09:17;10.40;81.70
2873;DHT22;1444;49.166;7.312;2023-04-03T10:12:02;10.70;84.00
2873;DHT22;1444;49.166;7.312;2023-04-03T10:14:33;10.70;80.60
2873;DHT22;1444;49.166;7.312;2023-04-03T10:17:14;10.50;80.10
2873;DHT22;1444;49.166;7.312;2023-04-03T10:19:46;10.50;80.50
2873;DHT22;1444;49.166;7.312;2023-04-03T10:22:20;10.40;80.40
2873;DHT22;1444;49.166;7.312;2023-04-03T10:25:01;10.20;77.10
2873;DHT22;1444;49.166;7.312;2023-04-03T10:27:38;10.30;80.80
2873;DHT22;1444;49.166;7.312;2023-04-03T10:30:19;10.20;79.50
2873;DHT22;1444;49.166;7.312;2023-04-03T10:32:55;10.20;78.90
2873;DHT22;1444;49.166;7.312;2023-04-03T10:35:34;10.20;80.00
2873;DHT22;1444;49.166;7.312;2023-04-03T10:38:10;10.20;79.40
2873;DHT22;1444;49.166;7.312;2023-04-03T10:40:44;10.30;80.30
2873;DHT22;1444;49.166;7.312;2023-04-03T10:43:20;10.20;80.20
2873;DHT22;1444;49.166;7.312;2023-04-03T10:45:55;10.30;80.80
2873;DHT22;1444;49.166;7.312;2023-04-03T10:48:35;10.20;79.40
2873;DHT22;1444;49.166;7.312;2023-04-03T10:51:12;10.50;81.50
2873;DHT22;1444;49.166;7.312;2023-04-03T10:53:46;10.60;80.50
2873;DHT22;1444;49.166;7.312;2023-04-03T10:56:19;10.50;78.30
2873;DHT22;1444;49.166;7.312;2023-04-03T10:58:52;10.30;78.00
2873;DHT22;1444;49.166;7.312;2023-04-03T11:01:25;10.20;77.10
2873;DHT22;1444;49.166;7.312;2023-04-03T11:03:56;10.10;77.30
2873;DHT22;1444;49.166;7.312;2023-04-03T11:06:26;10.10;79.00
2873;DHT22;1444;49.166;7.312;2023-04-03T11:08:58;10.00;80.80
2873;DHT22;1444;49.166;7.312;2023-04-03T11:11:30;10.00;80.20
2873;DHT22;1444;49.166;7.312;2023-04-03T11:14:01;9.90;80.60
2873;DHT22;1444;49.166;7.312;2023-04-03T11:16:35;9.90;80.00
2873;DHT22;1444;49.166;7.312;2023-04-03T11:19:11;9.90;81.50
2873;DHT22;1444;49.166;7.312;2023-04-03T11:21:45;9.90;81.60
2873;DHT22;1444;49.166;7.312;2023-04-03T11:24:19;10.00;79.60
2873;DHT22;1444;49.166;7.312;2023-04-03T11:26:49;10.00;79.00
2873;DHT22;1444;49.166;7.312;2023-04-03T11:29:22;10.50;80.80
2873;DHT22;1444;49.166;7.312;2023-04-03T11:32:06;10.60;81.30
2873;DHT22;1444;49.166;7.312;2023-04-03T11:34:38;10.60;78.90
2873;DHT22;1444;49.166;7.312;2023-04-03T11:37:13;10.40;79.10
2873;DHT22;1444;49.166;7.312;2023-04-03T11:39:49;10.40;79.20
2873;DHT22;1444;49.166;7.312;2023-04-03T11:42:25;10.40;80.10
2873;DHT22;1444;49.166;7.312;2023-04-03T11:45:16;10.20;78.30
2873;DHT22;1444;49.166;7.312;2023-04-03T11:47:46;12.00;80.20
2873;DHT22;1444;49.166;7.312;2023-04-03T11:50:44;10.30;78.80
2873;DHT22;1444;49.166;7.312;2023-04-03T11:53:29;10.50;80.90
2873;DHT22;1444;49.166;7.312;2023-04-03T11:55:58;10.50;79.30
2873;DHT22;1444;49.166;7.312;2023-04-03T11:58:27;10.60;79.80
2873;DHT22;1444;49.166;7.312;2023-04-03T12:00:59;10.90;80.10
2873;DHT22;1444;49.166;7.312;2023-04-03T12:03:33;11.00;78.60
2873;DHT22;1444;49.166;7.312;2023-04-03T12:09:01;10.60;73.60
2873;DHT22;1444;49.166;7.312;2023-04-03T12:11:30;10.60;77.60
2873;DHT22;1444;49.166;7.312;2023-04-03T12:14:05;10.70;77.00
2873;DHT22;1444;49.166;7.312;2023-04-03T12:16:43;10.90;77.50
2873;DHT22;1444;49.166;7.312;2023-04-03T12:19:34;10.80;78.30
2873;DHT22;1444;49.166;7.312;2023-04-03T12:22:14;11.10;78.40
2873;DHT22;1444;49.166;7.312;2023-04-03T12:24:43;11.20;78.00
2873;DHT22;1444;49.166;7.312;2023-04-03T12:27:28;11.40;77.90
2873;DHT22;1444;49.166;7.312;2023-04-03T12:30:05;11.60;80.90
2873;DHT22;1444;49.166;7.312;2023-04-03T12:32:51;11.30;77.00
2873;DHT22;1444;49.166;7.312;2023-04-03T12:35:26;11.20;75.70
2873;DHT22;1444;49.166;7.312;2023-04-03T12:41:26;11.10;78.50
2873;DHT22;1444;49.166;7.312;2023-04-03T12:44:22;11.10;77.20
2873;DHT22;1444;49.166;7.312;2023-04-03T12:46:52;11.10;78.60
2873;DHT22;1444;49.166;7.312;2023-04-03T12:49:33;11.30;78.80
2873;DHT22;1444;49.166;7.312;2023-04-03T12:52:05;11.50;80.10
2873;DHT22;1444;49.166;7.312;2023-04-03T12:54:46;11.30;76.30
2873;DHT22;1444;49.166;7.312;2023-04-03T12:57:21;11.30;77.20
2873;DHT22;1444;49.166;7.312;2023-04-03T12:59:48;11.10;76.40
2873;DHT22;1444;49.166;7.312;2023-04-03T13:02:21;11.20;77.80
2873;DHT22;1444;49.166;7.312;2023-04-03T13:04:48;11.40;79.00
2873;DHT22;1444;49.166;7.312;2023-04-03T13:07:22;11.60;78.40
2873;DHT22;1444;49.166;7.312;2023-04-03T13:10:13;11.70;80.90
2873;DHT22;1444;49.166;7.312;2023-04-03T13:12:46;11.80;76.60
2873;DHT22;1444;49.166;7.312;2023-04-03T13:15:16;12.00;79.10
2873;DHT22;1444;49.166;7.312;2023-04-03T13:17:43;12.00;77.40
2873;DHT22;1444;49.166;7.312;2023-04-03T13:20:13;11.80;74.60
2873;DHT22;1444;49.166;7.312;2023-04-03T13:22:49;11.30;74.10
2873;DHT22;1444;49.166;7.312;2023-04-03T13:25:17;11.20;76.20
2873;DHT22;1444;49.166;7.312;2023-04-03T13:27:46;11.40;79.00
2873;DHT22;1444;49.166;7.312;2023-04-03T13:30:21;11.20;73.70
2873;DHT22;1444;49.166;7.312;2023-04-03T13:32:50;11.20;77.60
2873;DHT22;1444;49.166;7.312;2023-04-03T13:35:26;11.00;76.60
2873;DHT22;1444;49.166;7.312;2023-04-03T13:37:59;10.90;77.40
2873;DHT22;1444;49.166;7.312;2023-04-03T13:40:26;11.10;76.30
2873;DHT22;1444;49.166;7.312;2023-04-03T13:43:01;11.20;77.20
2873;DHT22;1444;49.166;7.312;2023-04-03T13:45:30;11.10;75.90
2873;DHT22;1444;49.166;7.312;2023-04-03T13:48:09;10.90;74.80
2873;DHT22;1444;49.166;7.312;2023-04-03T13:50:53;11.00;77.10
2873;DHT22;1444;49.166;7.312;2023-04-03T13:53:21;10.90;75.70
2873;DHT22;1444;49.166;7.312;2023-04-03T13:56:09;10.80;73.90
2873;DHT22;1444;49.166;7.312;2023-04-03T13:58:53;11.00;77.50
2873;DHT22;1444;49.166;7.312;2023-04-03T14:01:22;11.00;77.10
2873;DHT22;1444;49.166;7.312;2023-04-03T14:03:53;10.70;74.70
2873;DHT22;1444;49.166;7.312;2023-04-03T14:06:22;10.70;75.20
2873;DHT22;1444;49.166;7.312;2023-04-03T14:08:51;10.70;74.80
2873;DHT22;1444;49.166;7.312;2023-04-03T14:11:19;11.00;76.50
2873;DHT22;1444;49.166;7.312;2023-04-03T14:13:49;10.50;75.50
2873;DHT22;1444;49.166;7.312;2023-04-03T14:16:18;10.30;74.80
2873;DHT22;1444;49.166;7.312;2023-04-03T14:18:46;10.30;74.60
2873;DHT22;1444;49.166;7.312;2023-04-03T14:21:14;10.30;75.10
2873;DHT22;1444;49.166;7.312;2023-04-03T14:23:41;10.20;75.00
2873;DHT22;1444;49.166;7.312;2023-04-03T14:26:12;10.30;75.60
2873;DHT22;1444;49.166;7.312;2023-04-03T14:28:39;10.20;75.80
2873;DHT22;1444;49.166;7.312;2023-04-03T14:31:06;10.40;75.10
2873;DHT22;1444;49.166;7.312;2023-04-03T14:33:33;10.50;77.50
2873;DHT22;1444;49.166;7.312;2023-04-03T14:36:01;10.60;74.60
2873;DHT22;1444;49.166;7.312;2023-04-03T14:38:30;10.60;73.80
2873;DHT22;1444;49.166;7.312;2023-04-03T14:40:57;10.50;74.50
2873;DHT22;1444;49.166;7.312;2023-04-03T14:43:25;10.50;74.20
2873;DHT22;1444;49.166;7.312;2023-04-03T14:45:53;10.40;75.80
2873;DHT22;1444;49.166;7.312;2023-04-03T14:48:22;10.40;76.40
2873;DHT22;1444;49.166;7.312;2023-04-03T14:50:50;10.40;75.40
2873;DHT22;1444;49.166;7.312;2023-04-03T14:53:18;10.30;75.10
2873;DHT22;1444;49.166;7.312;2023-04-03T14:55:48;10.30;77.10
2873;DHT22;1444;49.166;7.312;2023-04-03T14:58:17;10.20;77.10
2873;DHT22;1444;49.166;7.312;2023-04-03T15:00:46;10.20;76.00
2873;DHT22;1444;49.166;7.312;2023-04-03T15:03:14;10.30;77.30
2873;DHT22;1444;49.166;7.312;2023-04-03T15:05:42;10.30;76.20
2873;DHT22;1444;49.166;7.312;2023-04-03T15:08:18;10.20;75.30
2873;DHT22;1444;49.166;7.312;2023-04-03T15:10:45;10.20;77.40
2873;DHT22;1444;49.166;7.312;2023-04-03T15:13:13;10.10;76.10
2873;DHT22;1444;49.166;7.312;2023-04-03T15:15:40;10.00;75.60
2873;DHT22;1444;49.166;7.312;2023-04-03T15:18:12;10.00;76.90
2873;DHT22;1444;49.166;7.312;2023-04-03T15:20:39;10.10;78.50
2873;DHT22;1444;49.166;7.312;2023-04-03T15:23:06;10.00;74.90
2873;DHT22;1444;49.166;7.312;2023-04-03T15:28:00;9.90;75.20
2873;DHT22;1444;49.166;7.312;2023-04-03T15:30:27;9.80;76.20
2873;DHT22;1444;49.166;7.312;2023-04-03T15:32:53;9.80;76.30
2873;DHT22;1444;49.166;7.312;2023-04-03T15:35:22;9.80;76.80
2873;DHT22;1444;49.166;7.312;2023-04-03T15:37:49;9.80;75.70
2873;DHT22;1444;49.166;7.312;2023-04-03T15:40:16;9.80;74.50
2873;DHT22;1444;49.166;7.312;2023-04-03T15:42:43;9.80;75.10
2873;DHT22;1444;49.166;7.312;2023-04-03T15:45:10;10.10;74.60
2873;DHT22;1444;49.166;7.312;2023-04-03T15:47:37;10.00;73.90
2873;DHT22;1444;49.166;7.312;2023-04-03T15:50:05;10.00;75.70
2873;DHT22;1444;49.166;7.312;2023-04-03T15:52:34;9.90;74.80
2873;DHT22;1444;49.166;7.312;2023-04-03T15:55:01;9.90;74.50
2873;DHT22;1444;49.166;7.312;2023-04-03T15:57:28;10.10;75.20
2873;DHT22;1444;49.166;7.312;2023-04-03T15:59:55;10.20;78.90
2873;DHT22;1444;49.166;7.312;2023-04-03T16:02:22;10.20;73.10
2873;DHT22;1444;49.166;7.312;2023-04-03T16:04:53;10.20;73.90
2873;DHT22;1444;49.166;7.312;2023-04-03T16:07:19;10.10;72.70
2873;DHT22;1444;49.166;7.312;2023-04-03T16:09:48;9.80;74.40
2873;DHT22;1444;49.166;7.312;2023-04-03T16:12:14;9.70;74.50
2873;DHT22;1444;49.166;7.312;2023-04-03T16:14:41;9.60;74.80
2873;DHT22;1444;49.166;7.312;2023-04-03T16:17:08;9.70;75.30
2873;DHT22;1444;49.166;7.312;2023-04-03T16:19:35;9.70;74.80
2873;DHT22;1444;49.166;7.312;2023-04-03T16:22:02;9.90;76.50
2873;DHT22;1444;49.166;7.312;2023-04-03T16:24:29;10.10;74.50
2873;DHT22;1444;49.166;7.312;2023-04-03T16:26:57;10.30;75.40
2873;DHT22;1444;49.166;7.312;2023-04-03T16:29:23;10.20;71.90
2873;DHT22;1444;49.166;7.312;2023-04-03T16:31:50;10.20;71.60
2873;DHT22;1444;49.166;7.312;2023-04-03T16:34:17;10.20;72.20
2873;DHT22;1444;49.166;7.312;2023-04-03T16:36:44;10.00;71.60
2873;DHT22;1444;49.166;7.312;2023-04-03T16:39:10;10.00;73.10
2873;DHT22;1444;49.166;7.312;2023-04-03T16:41:37;10.00;72.40
2873;DHT22;1444;49.166;7.312;2023-04-03T16:44:05;10.00;73.50
2873;DHT22;1444;49.166;7.312;2023-04-03T16:46:32;10.00;74.20
2873;DHT22;1444;49.166;7.312;2023-04-03T16:48:59;10.00;73.60
2873;DHT22;1444;49.166;7.312;2023-04-03T16:51:26;10.10;74.30
2873;DHT22;1444;49.166;7.312;2023-04-03T16:53:53;10.00;71.70
2873;DHT22;1444;49.166;7.312;2023-04-03T16:56:19;10.00;71.90
2873;DHT22;1444;49.166;7.312;2023-04-03T16:58:47;10.00;72.20
2873;DHT22;1444;49.166;7.312;2023-04-03T17:01:18;10.10;75.00